5B6 weather

Falmouth Airpark
Falmouth, Massachusetts, United States

Public forecast

Using degrees Fahrenheit for public forecast. Weather courtesy of forecast.io.

Closest aviation weather report (METAR) to Falmouth Airpark

Closest report is Cape Cod Coast Guard Air Station, 4.5 nm (8.2 km) N. Retrieved 2019/11/15 08:45 UTC (19 minutes ago):

KFMH 150845Z 00000KT 10SM FEW028 04/01 A3023

Closest aviation forecast (TAF) to Falmouth Airpark

Closest forecast is Cape Cod Coast Guard Air Station, 4.5 nm (8.2 km) N. Retrieved 2019/11/15 06:24 UTC (3 hours ago):

TAF KFMH 150522Z 1506/1606 25005KT P6SM BKN040 FM150800 25006KT P6SM BKN150 FM151600 24010G19KT P6SM FEW250 FM152300 26009KT P6SM FEW250 FM160300 30010G20KT P6SM FEW250 FM160500 33012G24KT P6SM SCT250